Sao Francisco do Piaui, Brazil
Current Conditions -  °F | °C
As of 10:00 AM on Sunday 21 Dec 2014 (Local Time) from SBTE Reporting Station
Few Clouds Few Clouds  
Wind Chill: 90°   Ceiling: Unl
Heat Index: 91°   Visibility: 6mi
Dew Point: 64°   Wind: 7mph
Humidity: 43%   Direction: 110°ESE
Pressure: 29.88"   Gusts: NA
Location:  7.25°S, 42.54°W
Report Text: SBTE 211300Z 11006KT 9999 FEW030 32/18 Q1012
Loading
Personal Weather Stations






























Interactive Weather Map New forecast layout! Learn more

10-Day Weather Forecast

Advertisements
Track Severe Weather on mobile